sensor_id;sensor_type;location;lat;lon;timestamp;P1;durP1;ratioP1;P2;durP2;ratioP2
62880;SDS011;48969;49.934;8.596;2023-06-14T00:00:36;9.18;;;7.25;;
62880;SDS011;48969;49.934;8.596;2023-06-14T00:03:08;9.02;;;7.50;;
62880;SDS011;48969;49.934;8.596;2023-06-14T00:05:35;9.32;;;7.28;;
62880;SDS011;48969;49.934;8.596;2023-06-14T00:08:05;7.80;;;7.00;;
62880;SDS011;48969;49.934;8.596;2023-06-14T00:10:32;8.05;;;7.07;;
62880;SDS011;48969;49.934;8.596;2023-06-14T00:13:00;7.95;;;7.07;;
62880;SDS011;48969;49.934;8.596;2023-06-14T00:15:29;7.70;;;6.90;;
62880;SDS011;48969;49.934;8.596;2023-06-14T00:17:55;8.30;;;7.35;;
62880;SDS011;48969;49.934;8.596;2023-06-14T00:20:21;7.75;;;6.95;;
62880;SDS011;48969;49.934;8.596;2023-06-14T00:22:47;9.65;;;7.15;;
62880;SDS011;48969;49.934;8.596;2023-06-14T00:25:13;9.00;;;7.85;;
62880;SDS011;48969;49.934;8.596;2023-06-14T00:27:38;8.13;;;7.07;;
62880;SDS011;48969;49.934;8.596;2023-06-14T00:30:03;8.80;;;7.63;;
62880;SDS011;48969;49.934;8.596;2023-06-14T00:32:29;9.07;;;7.47;;
62880;SDS011;48969;49.934;8.596;2023-06-14T00:34:55;9.32;;;7.50;;
62880;SDS011;48969;49.934;8.596;2023-06-14T00:37:20;7.95;;;6.80;;
62880;SDS011;48969;49.934;8.596;2023-06-14T00:39:45;8.50;;;7.65;;
62880;SDS011;48969;49.934;8.596;2023-06-14T00:42:10;10.48;;;7.18;;
62880;SDS011;48969;49.934;8.596;2023-06-14T00:44:36;8.88;;;6.80;;
62880;SDS011;48969;49.934;8.596;2023-06-14T00:47:01;8.77;;;7.03;;
62880;SDS011;48969;49.934;8.596;2023-06-14T00:49:27;8.10;;;7.30;;
62880;SDS011;48969;49.934;8.596;2023-06-14T00:51:54;9.98;;;7.40;;
62880;SDS011;48969;49.934;8.596;2023-06-14T00:54:20;8.55;;;7.13;;
62880;SDS011;48969;49.934;8.596;2023-06-14T00:56:45;7.60;;;6.80;;
62880;SDS011;48969;49.934;8.596;2023-06-14T00:59:10;9.45;;;7.60;;
62880;SDS011;48969;49.934;8.596;2023-06-14T01:01:36;9.82;;;7.60;;
62880;SDS011;48969;49.934;8.596;2023-06-14T01:04:02;7.95;;;6.85;;
62880;SDS011;48969;49.934;8.596;2023-06-14T01:06:33;8.48;;;6.75;;
62880;SDS011;48969;49.934;8.596;2023-06-14T01:09:27;8.40;;;6.68;;
62880;SDS011;48969;49.934;8.596;2023-06-14T01:12:22;9.75;;;7.00;;
62880;SDS011;48969;49.934;8.596;2023-06-14T01:14:54;8.40;;;6.63;;
62880;SDS011;48969;49.934;8.596;2023-06-14T01:17:24;8.77;;;7.57;;
62880;SDS011;48969;49.934;8.596;2023-06-14T01:19:52;10.25;;;7.35;;
62880;SDS011;48969;49.934;8.596;2023-06-14T01:22:23;8.30;;;6.85;;
62880;SDS011;48969;49.934;8.596;2023-06-14T01:24:51;7.63;;;6.82;;
62880;SDS011;48969;49.934;8.596;2023-06-14T01:27:20;9.18;;;7.05;;
62880;SDS011;48969;49.934;8.596;2023-06-14T01:29:50;8.60;;;6.85;;
62880;SDS011;48969;49.934;8.596;2023-06-14T01:32:17;9.10;;;6.90;;
62880;SDS011;48969;49.934;8.596;2023-06-14T01:34:44;7.55;;;6.75;;
62880;SDS011;48969;49.934;8.596;2023-06-14T01:37:10;8.27;;;6.78;;
62880;SDS011;48969;49.934;8.596;2023-06-14T01:39:36;10.57;;;6.93;;
62880;SDS011;48969;49.934;8.596;2023-06-14T01:42:02;7.82;;;6.78;;
62880;SDS011;48969;49.934;8.596;2023-06-14T01:44:28;8.15;;;6.88;;
62880;SDS011;48969;49.934;8.596;2023-06-14T01:46:55;8.88;;;6.75;;
62880;SDS011;48969;49.934;8.596;2023-06-14T01:49:21;11.23;;;7.30;;
62880;SDS011;48969;49.934;8.596;2023-06-14T01:51:46;9.40;;;7.30;;
62880;SDS011;48969;49.934;8.596;2023-06-14T01:54:11;7.72;;;6.60;;
62880;SDS011;48969;49.934;8.596;2023-06-14T01:56:36;8.73;;;7.03;;
62880;SDS011;48969;49.934;8.596;2023-06-14T01:59:02;9.90;;;6.75;;
62880;SDS011;48969;49.934;8.596;2023-06-14T02:01:27;7.63;;;6.70;;
62880;SDS011;48969;49.934;8.596;2023-06-14T02:03:53;10.30;;;6.97;;
62880;SDS011;48969;49.934;8.596;2023-06-14T02:06:18;8.07;;;6.88;;
62880;SDS011;48969;49.934;8.596;2023-06-14T02:08:44;8.65;;;6.95;;
62880;SDS011;48969;49.934;8.596;2023-06-14T02:11:09;7.95;;;6.65;;
62880;SDS011;48969;49.934;8.596;2023-06-14T02:13:35;8.88;;;6.55;;
62880;SDS011;48969;49.934;8.596;2023-06-14T02:16:00;8.10;;;6.63;;
62880;SDS011;48969;49.934;8.596;2023-06-14T02:18:26;7.43;;;6.72;;
62880;SDS011;48969;49.934;8.596;2023-06-14T02:20:52;9.55;;;6.90;;
62880;SDS011;48969;49.934;8.596;2023-06-14T02:23:17;7.78;;;6.53;;
62880;SDS011;48969;49.934;8.596;2023-06-14T02:25:43;8.35;;;6.38;;
62880;SDS011;48969;49.934;8.596;2023-06-14T02:28:09;10.88;;;6.80;;
62880;SDS011;48969;49.934;8.596;2023-06-14T02:30:35;8.77;;;6.22;;
62880;SDS011;48969;49.934;8.596;2023-06-14T02:33:00;8.05;;;6.50;;
62880;SDS011;48969;49.934;8.596;2023-06-14T02:35:25;8.02;;;6.47;;
62880;SDS011;48969;49.934;8.596;2023-06-14T02:37:52;8.50;;;6.43;;
62880;SDS011;48969;49.934;8.596;2023-06-14T02:40:18;7.50;;;6.10;;
62880;SDS011;48969;49.934;8.596;2023-06-14T02:42:43;7.82;;;6.35;;
62880;SDS011;48969;49.934;8.596;2023-06-14T02:45:09;8.13;;;6.82;;
62880;SDS011;48969;49.934;8.596;2023-06-14T02:47:34;7.00;;;6.30;;
62880;SDS011;48969;49.934;8.596;2023-06-14T02:49:59;6.95;;;6.10;;
62880;SDS011;48969;49.934;8.596;2023-06-14T02:52:25;12.60;;;7.10;;
62880;SDS011;48969;49.934;8.596;2023-06-14T02:54:53;17.48;;;8.10;;
62880;SDS011;48969;49.934;8.596;2023-06-14T02:57:19;18.70;;;7.75;;
62880;SDS011;48969;49.934;8.596;2023-06-14T02:59:44;19.10;;;7.88;;
62880;SDS011;48969;49.934;8.596;2023-06-14T03:02:10;12.30;;;7.00;;
62880;SDS011;48969;49.934;8.596;2023-06-14T03:04:35;10.55;;;6.72;;
62880;SDS011;48969;49.934;8.596;2023-06-14T03:07:02;8.18;;;6.50;;
62880;SDS011;48969;49.934;8.596;2023-06-14T03:09:37;10.02;;;6.80;;
62880;SDS011;48969;49.934;8.596;2023-06-14T03:12:03;11.88;;;6.50;;
62880;SDS011;48969;49.934;8.596;2023-06-14T03:14:32;10.73;;;6.50;;
62880;SDS011;48969;49.934;8.596;2023-06-14T03:16:57;11.75;;;6.60;;
62880;SDS011;48969;49.934;8.596;2023-06-14T03:19:24;7.97;;;6.45;;
62880;SDS011;48969;49.934;8.596;2023-06-14T03:21:50;9.32;;;6.45;;
62880;SDS011;48969;49.934;8.596;2023-06-14T03:24:16;12.68;;;6.70;;
62880;SDS011;48969;49.934;8.596;2023-06-14T03:26:42;9.80;;;6.38;;
62880;SDS011;48969;49.934;8.596;2023-06-14T03:29:08;11.95;;;6.45;;
62880;SDS011;48969;49.934;8.596;2023-06-14T03:31:34;9.27;;;5.90;;
62880;SDS011;48969;49.934;8.596;2023-06-14T03:34:00;8.55;;;6.28;;
62880;SDS011;48969;49.934;8.596;2023-06-14T03:36:26;11.40;;;6.80;;
62880;SDS011;48969;49.934;8.596;2023-06-14T03:38:52;12.45;;;6.72;;
62880;SDS011;48969;49.934;8.596;2023-06-14T03:41:18;7.40;;;6.30;;
62880;SDS011;48969;49.934;8.596;2023-06-14T03:43:43;10.13;;;6.65;;
62880;SDS011;48969;49.934;8.596;2023-06-14T03:46:09;8.75;;;6.47;;
62880;SDS011;48969;49.934;8.596;2023-06-14T03:48:34;6.97;;;6.28;;
62880;SDS011;48969;49.934;8.596;2023-06-14T03:50:59;7.85;;;6.60;;
62880;SDS011;48969;49.934;8.596;2023-06-14T03:53:25;7.20;;;6.13;;
62880;SDS011;48969;49.934;8.596;2023-06-14T03:55:52;11.60;;;6.60;;
62880;SDS011;48969;49.934;8.596;2023-06-14T03:58:19;7.45;;;6.05;;
62880;SDS011;48969;49.934;8.596;2023-06-14T04:00:44;7.15;;;5.65;;
62880;SDS011;48969;49.934;8.596;2023-06-14T04:03:10;10.60;;;6.00;;
62880;SDS011;48969;49.934;8.596;2023-06-14T04:05:38;9.27;;;6.05;;
62880;SDS011;48969;49.934;8.596;2023-06-14T04:08:07;6.88;;;5.68;;
62880;SDS011;48969;49.934;8.596;2023-06-14T04:10:33;6.50;;;5.65;;
62880;SDS011;48969;49.934;8.596;2023-06-14T04:12:59;7.45;;;6.00;;
62880;SDS011;48969;49.934;8.596;2023-06-14T04:15:24;7.55;;;6.00;;
62880;SDS011;48969;49.934;8.596;2023-06-14T04:17:49;7.47;;;5.95;;
62880;SDS011;48969;49.934;8.596;2023-06-14T04:20:15;8.07;;;5.95;;
62880;SDS011;48969;49.934;8.596;2023-06-14T04:22:42;9.93;;;6.10;;
62880;SDS011;48969;49.934;8.596;2023-06-14T04:25:08;10.00;;;6.03;;
62880;SDS011;48969;49.934;8.596;2023-06-14T04:27:33;12.15;;;6.57;;
62880;SDS011;48969;49.934;8.596;2023-06-14T04:30:01;7.18;;;6.03;;
62880;SDS011;48969;49.934;8.596;2023-06-14T04:32:28;7.18;;;5.75;;
62880;SDS011;48969;49.934;8.596;2023-06-14T04:35:07;7.97;;;5.65;;
62880;SDS011;48969;49.934;8.596;2023-06-14T04:37:32;7.75;;;6.13;;
62880;SDS011;48969;49.934;8.596;2023-06-14T04:39:58;8.15;;;6.10;;
62880;SDS011;48969;49.934;8.596;2023-06-14T04:42:23;7.95;;;5.63;;
62880;SDS011;48969;49.934;8.596;2023-06-14T04:44:50;6.28;;;5.45;;
62880;SDS011;48969;49.934;8.596;2023-06-14T04:47:19;6.93;;;5.65;;
62880;SDS011;48969;49.934;8.596;2023-06-14T04:49:46;8.30;;;5.75;;
62880;SDS011;48969;49.934;8.596;2023-06-14T04:52:11;12.15;;;6.10;;
62880;SDS011;48969;49.934;8.596;2023-06-14T04:54:38;7.13;;;5.47;;
62880;SDS011;48969;49.934;8.596;2023-06-14T04:57:06;10.00;;;5.85;;
62880;SDS011;48969;49.934;8.596;2023-06-14T04:59:31;6.55;;;5.38;;
62880;SDS011;48969;49.934;8.596;2023-06-14T05:02:00;6.80;;;5.45;;
62880;SDS011;48969;49.934;8.596;2023-06-14T05:04:26;9.07;;;5.25;;
62880;SDS011;48969;49.934;8.596;2023-06-14T05:06:53;7.07;;;5.22;;
62880;SDS011;48969;49.934;8.596;2023-06-14T05:09:19;10.02;;;5.60;;
62880;SDS011;48969;49.934;8.596;2023-06-14T05:11:45;7.95;;;5.80;;
62880;SDS011;48969;49.934;8.596;2023-06-14T05:14:11;7.88;;;5.60;;
62880;SDS011;48969;49.934;8.596;2023-06-14T05:16:36;8.48;;;5.60;;
62880;SDS011;48969;49.934;8.596;2023-06-14T05:19:02;8.35;;;5.95;;
62880;SDS011;48969;49.934;8.596;2023-06-14T05:21:29;7.53;;;5.47;;
62880;SDS011;48969;49.934;8.596;2023-06-14T05:23:54;9.75;;;5.70;;
62880;SDS011;48969;49.934;8.596;2023-06-14T05:26:21;10.25;;;6.00;;
62880;SDS011;48969;49.934;8.596;2023-06-14T05:28:48;6.40;;;5.80;;
62880;SDS011;48969;49.934;8.596;2023-06-14T05:31:14;9.10;;;5.70;;
62880;SDS011;48969;49.934;8.596;2023-06-14T05:33:40;8.30;;;5.88;;
62880;SDS011;48969;49.934;8.596;2023-06-14T05:36:05;7.68;;;5.40;;
62880;SDS011;48969;49.934;8.596;2023-06-14T05:38:30;9.38;;;4.95;;
62880;SDS011;48969;49.934;8.596;2023-06-14T05:40:58;7.40;;;4.85;;
62880;SDS011;48969;49.934;8.596;2023-06-14T05:43:24;7.03;;;5.00;;
62880;SDS011;48969;49.934;8.596;2023-06-14T05:45:49;9.48;;;5.82;;
62880;SDS011;48969;49.934;8.596;2023-06-14T05:48:15;7.70;;;5.60;;
62880;SDS011;48969;49.934;8.596;2023-06-14T05:50:40;8.85;;;5.35;;
62880;SDS011;48969;49.934;8.596;2023-06-14T05:53:05;7.50;;;4.85;;
62880;SDS011;48969;49.934;8.596;2023-06-14T05:55:31;7.13;;;4.97;;
62880;SDS011;48969;49.934;8.596;2023-06-14T05:57:56;6.22;;;4.88;;
62880;SDS011;48969;49.934;8.596;2023-06-14T06:00:21;7.90;;;5.15;;
62880;SDS011;48969;49.934;8.596;2023-06-14T06:02:47;9.32;;;5.60;;
62880;SDS011;48969;49.934;8.596;2023-06-14T06:05:12;7.70;;;5.28;;
62880;SDS011;48969;49.934;8.596;2023-06-14T06:07:38;6.43;;;4.68;;
62880;SDS011;48969;49.934;8.596;2023-06-14T06:10:09;8.73;;;5.18;;
62880;SDS011;48969;49.934;8.596;2023-06-14T06:12:34;8.13;;;5.05;;
62880;SDS011;48969;49.934;8.596;2023-06-14T06:15:00;6.05;;;5.10;;
62880;SDS011;48969;49.934;8.596;2023-06-14T06:17:26;7.60;;;5.10;;
62880;SDS011;48969;49.934;8.596;2023-06-14T06:19:51;7.97;;;5.15;;
62880;SDS011;48969;49.934;8.596;2023-06-14T06:22:16;7.88;;;5.25;;
62880;SDS011;48969;49.934;8.596;2023-06-14T06:24:42;7.55;;;5.03;;
62880;SDS011;48969;49.934;8.596;2023-06-14T06:27:07;9.10;;;5.30;;
62880;SDS011;48969;49.934;8.596;2023-06-14T06:29:37;6.70;;;4.68;;
62880;SDS011;48969;49.934;8.596;2023-06-14T06:32:02;11.13;;;5.40;;
62880;SDS011;48969;49.934;8.596;2023-06-14T06:34:28;5.53;;;4.47;;
62880;SDS011;48969;49.934;8.596;2023-06-14T06:36:53;7.57;;;5.03;;
62880;SDS011;48969;49.934;8.596;2023-06-14T06:39:19;7.05;;;5.10;;
62880;SDS011;48969;49.934;8.596;2023-06-14T06:41:45;5.82;;;4.82;;
62880;SDS011;48969;49.934;8.596;2023-06-14T06:44:10;6.15;;;4.60;;
62880;SDS011;48969;49.934;8.596;2023-06-14T06:46:36;6.80;;;4.80;;
62880;SDS011;48969;49.934;8.596;2023-06-14T06:49:05;5.60;;;4.47;;
62880;SDS011;48969;49.934;8.596;2023-06-14T06:51:34;6.43;;;4.93;;
62880;SDS011;48969;49.934;8.596;2023-06-14T06:54:00;6.80;;;4.80;;
62880;SDS011;48969;49.934;8.596;2023-06-14T06:56:25;7.28;;;5.28;;
62880;SDS011;48969;49.934;8.596;2023-06-14T06:58:51;14.93;;;5.82;;
62880;SDS011;48969;49.934;8.596;2023-06-14T07:01:17;8.02;;;5.22;;
62880;SDS011;48969;49.934;8.596;2023-06-14T07:03:44;6.90;;;5.05;;
62880;SDS011;48969;49.934;8.596;2023-06-14T07:06:10;6.72;;;4.72;;
62880;SDS011;48969;49.934;8.596;2023-06-14T07:08:35;7.13;;;5.22;;
62880;SDS011;48969;49.934;8.596;2023-06-14T07:11:05;5.75;;;4.70;;
62880;SDS011;48969;49.934;8.596;2023-06-14T07:13:31;6.78;;;4.90;;
62880;SDS011;48969;49.934;8.596;2023-06-14T07:16:00;6.95;;;4.90;;
62880;SDS011;48969;49.934;8.596;2023-06-14T07:18:25;7.85;;;4.30;;
62880;SDS011;48969;49.934;8.596;2023-06-14T07:20:52;11.15;;;4.75;;
62880;SDS011;48969;49.934;8.596;2023-06-14T07:23:18;8.82;;;4.93;;
62880;SDS011;48969;49.934;8.596;2023-06-14T07:25:44;10.40;;;4.88;;
62880;SDS011;48969;49.934;8.596;2023-06-14T07:28:09;7.75;;;4.85;;
62880;SDS011;48969;49.934;8.596;2023-06-14T07:30:35;5.68;;;4.22;;
62880;SDS011;48969;49.934;8.596;2023-06-14T07:33:00;8.45;;;4.85;;
62880;SDS011;48969;49.934;8.596;2023-06-14T07:35:26;5.93;;;4.28;;
62880;SDS011;48969;49.934;8.596;2023-06-14T07:37:51;5.85;;;4.03;;
62880;SDS011;48969;49.934;8.596;2023-06-14T07:40:16;8.10;;;4.60;;
62880;SDS011;48969;49.934;8.596;2023-06-14T07:42:42;8.00;;;4.35;;
62880;SDS011;48969;49.934;8.596;2023-06-14T07:45:11;8.55;;;4.00;;
62880;SDS011;48969;49.934;8.596;2023-06-14T07:47:38;6.07;;;4.10;;
62880;SDS011;48969;49.934;8.596;2023-06-14T07:50:03;6.57;;;3.88;;
62880;SDS011;48969;49.934;8.596;2023-06-14T07:52:29;7.28;;;3.95;;
62880;SDS011;48969;49.934;8.596;2023-06-14T07:54:54;4.82;;;3.80;;
62880;SDS011;48969;49.934;8.596;2023-06-14T07:57:20;5.95;;;3.67;;
62880;SDS011;48969;49.934;8.596;2023-06-14T07:59:45;8.13;;;3.92;;
62880;SDS011;48969;49.934;8.596;2023-06-14T08:02:11;7.00;;;3.33;;
62880;SDS011;48969;49.934;8.596;2023-06-14T08:04:36;5.68;;;3.50;;
62880;SDS011;48969;49.934;8.596;2023-06-14T08:07:05;6.25;;;3.80;;
62880;SDS011;48969;49.934;8.596;2023-06-14T08:09:30;4.97;;;3.60;;
62880;SDS011;48969;49.934;8.596;2023-06-14T08:11:55;5.95;;;3.25;;
62880;SDS011;48969;49.934;8.596;2023-06-14T08:14:21;18.00;;;4.25;;
62880;SDS011;48969;49.934;8.596;2023-06-14T08:16:46;7.43;;;3.83;;
62880;SDS011;48969;49.934;8.596;2023-06-14T08:19:12;8.05;;;3.40;;
62880;SDS011;48969;49.934;8.596;2023-06-14T08:21:37;5.22;;;3.35;;
62880;SDS011;48969;49.934;8.596;2023-06-14T08:24:03;6.00;;;2.78;;
62880;SDS011;48969;49.934;8.596;2023-06-14T08:26:29;6.45;;;2.90;;
62880;SDS011;48969;49.934;8.596;2023-06-14T08:28:54;4.63;;;2.80;;
62880;SDS011;48969;49.934;8.596;2023-06-14T08:31:20;4.80;;;2.60;;
62880;SDS011;48969;49.934;8.596;2023-06-14T08:33:46;5.03;;;2.83;;
62880;SDS011;48969;49.934;8.596;2023-06-14T08:36:11;4.82;;;2.90;;
62880;SDS011;48969;49.934;8.596;2023-06-14T08:38:37;3.95;;;2.38;;
62880;SDS011;48969;49.934;8.596;2023-06-14T08:41:03;3.75;;;2.03;;
62880;SDS011;48969;49.934;8.596;2023-06-14T08:43:33;2.83;;;2.28;;
62880;SDS011;48969;49.934;8.596;2023-06-14T08:46:00;5.32;;;2.58;;
62880;SDS011;48969;49.934;8.596;2023-06-14T08:48:28;6.50;;;3.05;;
62880;SDS011;48969;49.934;8.596;2023-06-14T08:50:57;2.38;;;1.95;;
62880;SDS011;48969;49.934;8.596;2023-06-14T08:53:33;3.22;;;2.38;;
62880;SDS011;48969;49.934;8.596;2023-06-14T08:56:02;2.00;;;1.70;;
62880;SDS011;48969;49.934;8.596;2023-06-14T08:58:29;4.97;;;2.67;;
62880;SDS011;48969;49.934;8.596;2023-06-14T09:00:59;3.67;;;2.50;;
62880;SDS011;48969;49.934;8.596;2023-06-14T09:03:26;5.32;;;2.58;;
62880;SDS011;48969;49.934;8.596;2023-06-14T09:05:56;5.30;;;2.80;;
62880;SDS011;48969;49.934;8.596;2023-06-14T09:08:23;3.47;;;2.60;;
62880;SDS011;48969;49.934;8.596;2023-06-14T09:10:50;3.85;;;2.80;;
62880;SDS011;48969;49.934;8.596;2023-06-14T09:13:16;4.65;;;2.45;;
62880;SDS011;48969;49.934;8.596;2023-06-14T09:15:41;3.38;;;2.78;;
62880;SDS011;48969;49.934;8.596;2023-06-14T09:18:07;5.10;;;3.33;;
62880;SDS011;48969;49.934;8.596;2023-06-14T09:20:32;4.60;;;2.63;;
62880;SDS011;48969;49.934;8.596;2023-06-14T09:22:57;3.63;;;2.63;;
62880;SDS011;48969;49.934;8.596;2023-06-14T09:25:23;2.95;;;2.63;;
62880;SDS011;48969;49.934;8.596;2023-06-14T09:27:51;4.75;;;2.50;;
62880;SDS011;48969;49.934;8.596;2023-06-14T09:30:16;3.70;;;2.55;;
62880;SDS011;48969;49.934;8.596;2023-06-14T09:32:45;4.25;;;2.30;;
62880;SDS011;48969;49.934;8.596;2023-06-14T09:35:11;2.97;;;2.38;;
62880;SDS011;48969;49.934;8.596;2023-06-14T09:37:36;3.10;;;2.60;;
62880;SDS011;48969;49.934;8.596;2023-06-14T09:40:04;3.17;;;2.33;;
62880;SDS011;48969;49.934;8.596;2023-06-14T09:42:30;2.67;;;2.30;;
62880;SDS011;48969;49.934;8.596;2023-06-14T09:44:56;10.60;;;5.32;;
62880;SDS011;48969;49.934;8.596;2023-06-14T09:47:22;3.35;;;2.60;;
62880;SDS011;48969;49.934;8.596;2023-06-14T09:49:49;4.05;;;2.60;;
62880;SDS011;48969;49.934;8.596;2023-06-14T09:52:15;4.05;;;2.45;;
62880;SDS011;48969;49.934;8.596;2023-06-14T09:54:42;2.80;;;2.40;;
62880;SDS011;48969;49.934;8.596;2023-06-14T09:57:12;3.35;;;2.38;;
62880;SDS011;48969;49.934;8.596;2023-06-14T09:59:47;3.40;;;2.20;;
62880;SDS011;48969;49.934;8.596;2023-06-14T10:02:28;2.75;;;2.30;;
62880;SDS011;48969;49.934;8.596;2023-06-14T10:04:58;2.80;;;2.50;;
62880;SDS011;48969;49.934;8.596;2023-06-14T10:07:30;2.70;;;2.25;;
62880;SDS011;48969;49.934;8.596;2023-06-14T10:10:00;2.83;;;2.13;;
62880;SDS011;48969;49.934;8.596;2023-06-14T10:12:26;3.47;;;2.65;;
62880;SDS011;48969;49.934;8.596;2023-06-14T10:14:52;3.35;;;2.45;;
62880;SDS011;48969;49.934;8.596;2023-06-14T10:23:04;4.35;;;2.20;;
62880;SDS011;48969;49.934;8.596;2023-06-14T10:25:54;4.47;;;2.33;;
62880;SDS011;48969;49.934;8.596;2023-06-14T10:28:21;3.40;;;2.88;;
62880;SDS011;48969;49.934;8.596;2023-06-14T10:33:30;5.38;;;2.53;;
62880;SDS011;48969;49.934;8.596;2023-06-14T10:38:46;3.83;;;2.40;;
62880;SDS011;48969;49.934;8.596;2023-06-14T10:41:26;3.83;;;2.30;;
62880;SDS011;48969;49.934;8.596;2023-06-14T10:44:02;3.42;;;2.85;;
62880;SDS011;48969;49.934;8.596;2023-06-14T10:46:55;2.97;;;2.40;;
62880;SDS011;48969;49.934;8.596;2023-06-14T10:52:12;3.05;;;2.75;;
62880;SDS011;48969;49.934;8.596;2023-06-14T10:55:02;3.67;;;2.70;;
62880;SDS011;48969;49.934;8.596;2023-06-14T10:57:43;4.15;;;2.40;;
62880;SDS011;48969;49.934;8.596;2023-06-14T11:00:16;4.45;;;2.60;;
62880;SDS011;48969;49.934;8.596;2023-06-14T11:10:54;3.45;;;2.40;;
62880;SDS011;48969;49.934;8.596;2023-06-14T11:13:24;2.58;;;2.38;;
62880;SDS011;48969;49.934;8.596;2023-06-14T11:15:50;3.25;;;2.35;;
62880;SDS011;48969;49.934;8.596;2023-06-14T11:18:21;4.03;;;2.63;;
62880;SDS011;48969;49.934;8.596;2023-06-14T11:20:52;4.03;;;2.60;;
62880;SDS011;48969;49.934;8.596;2023-06-14T11:23:17;3.55;;;2.53;;
62880;SDS011;48969;49.934;8.596;2023-06-14T11:25:42;5.55;;;2.63;;
62880;SDS011;48969;49.934;8.596;2023-06-14T11:28:08;4.32;;;2.50;;
62880;SDS011;48969;49.934;8.596;2023-06-14T11:30:34;2.20;;;2.00;;
62880;SDS011;48969;49.934;8.596;2023-06-14T11:32:59;2.88;;;2.35;;
62880;SDS011;48969;49.934;8.596;2023-06-14T11:35:25;3.17;;;2.50;;
62880;SDS011;48969;49.934;8.596;2023-06-14T11:37:54;4.28;;;2.53;;
62880;SDS011;48969;49.934;8.596;2023-06-14T11:40:23;4.15;;;2.50;;
62880;SDS011;48969;49.934;8.596;2023-06-14T11:42:49;3.17;;;2.50;;
62880;SDS011;48969;49.934;8.596;2023-06-14T11:45:14;3.05;;;2.50;;
62880;SDS011;48969;49.934;8.596;2023-06-14T11:47:44;2.70;;;2.50;;
62880;SDS011;48969;49.934;8.596;2023-06-14T11:50:13;2.90;;;2.60;;
62880;SDS011;48969;49.934;8.596;2023-06-14T11:52:38;4.10;;;2.47;;
62880;SDS011;48969;49.934;8.596;2023-06-14T11:55:03;2.42;;;2.22;;
62880;SDS011;48969;49.934;8.596;2023-06-14T11:57:33;3.22;;;2.42;;
62880;SDS011;48969;49.934;8.596;2023-06-14T12:00:00;5.78;;;2.80;;
62880;SDS011;48969;49.934;8.596;2023-06-14T12:02:34;3.55;;;2.35;;
62880;SDS011;48969;49.934;8.596;2023-06-14T12:05:04;3.10;;;2.67;;
62880;SDS011;48969;49.934;8.596;2023-06-14T12:10:07;5.28;;;2.58;;
62880;SDS011;48969;49.934;8.596;2023-06-14T12:12:37;3.15;;;2.47;;
62880;SDS011;48969;49.934;8.596;2023-06-14T12:15:04;4.65;;;2.45;;
62880;SDS011;48969;49.934;8.596;2023-06-14T12:17:34;5.72;;;2.72;;
62880;SDS011;48969;49.934;8.596;2023-06-14T12:20:08;3.88;;;2.55;;
62880;SDS011;48969;49.934;8.596;2023-06-14T12:22:38;3.58;;;2.70;;
62880;SDS011;48969;49.934;8.596;2023-06-14T12:25:22;4.03;;;2.80;;
62880;SDS011;48969;49.934;8.596;2023-06-14T12:27:52;3.78;;;2.95;;
62880;SDS011;48969;49.934;8.596;2023-06-14T12:30:21;5.78;;;3.10;;
62880;SDS011;48969;49.934;8.596;2023-06-14T12:32:56;2.78;;;2.58;;
62880;SDS011;48969;49.934;8.596;2023-06-14T12:35:21;3.97;;;3.10;;
62880;SDS011;48969;49.934;8.596;2023-06-14T12:37:50;3.63;;;3.30;;
62880;SDS011;48969;49.934;8.596;2023-06-14T12:40:16;3.92;;;3.25;;
62880;SDS011;48969;49.934;8.596;2023-06-14T12:42:41;3.25;;;2.85;;
62880;SDS011;48969;49.934;8.596;2023-06-14T12:45:07;5.38;;;3.30;;
62880;SDS011;48969;49.934;8.596;2023-06-14T12:47:33;5.38;;;3.33;;
62880;SDS011;48969;49.934;8.596;2023-06-14T12:50:07;4.65;;;3.22;;
62880;SDS011;48969;49.934;8.596;2023-06-14T12:52:36;4.70;;;3.58;;
62880;SDS011;48969;49.934;8.596;2023-06-14T12:55:02;4.25;;;2.95;;
62880;SDS011;48969;49.934;8.596;2023-06-14T12:57:29;7.82;;;3.03;;
62880;SDS011;48969;49.934;8.596;2023-06-14T12:59:54;3.78;;;3.38;;
62880;SDS011;48969;49.934;8.596;2023-06-14T13:02:22;4.07;;;3.38;;
62880;SDS011;48969;49.934;8.596;2023-06-14T13:04:49;5.32;;;3.30;;
62880;SDS011;48969;49.934;8.596;2023-06-14T13:07:15;6.85;;;3.28;;
62880;SDS011;48969;49.934;8.596;2023-06-14T13:09:40;4.38;;;3.10;;
62880;SDS011;48969;49.934;8.596;2023-06-14T13:12:07;3.17;;;2.88;;
62880;SDS011;48969;49.934;8.596;2023-06-14T13:14:33;4.35;;;3.33;;
62880;SDS011;48969;49.934;8.596;2023-06-14T13:17:00;5.38;;;3.10;;
62880;SDS011;48969;49.934;8.596;2023-06-14T13:19:28;5.30;;;3.10;;
62880;SDS011;48969;49.934;8.596;2023-06-14T13:21:54;6.03;;;3.00;;
62880;SDS011;48969;49.934;8.596;2023-06-14T13:24:19;3.97;;;3.30;;
62880;SDS011;48969;49.934;8.596;2023-06-14T13:26:44;4.53;;;3.72;;
62880;SDS011;48969;49.934;8.596;2023-06-14T13:29:10;3.83;;;3.08;;
62880;SDS011;48969;49.934;8.596;2023-06-14T13:31:35;3.30;;;2.88;;
62880;SDS011;48969;49.934;8.596;2023-06-14T13:34:01;4.15;;;3.05;;
62880;SDS011;48969;49.934;8.596;2023-06-14T13:36:26;5.60;;;3.42;;
62880;SDS011;48969;49.934;8.596;2023-06-14T13:38:51;4.03;;;3.00;;
62880;SDS011;48969;49.934;8.596;2023-06-14T13:41:17;3.78;;;2.90;;
62880;SDS011;48969;49.934;8.596;2023-06-14T13:43:43;4.60;;;2.80;;
62880;SDS011;48969;49.934;8.596;2023-06-14T13:46:08;6.75;;;2.92;;
62880;SDS011;48969;49.934;8.596;2023-06-14T13:48:34;4.28;;;3.22;;
62880;SDS011;48969;49.934;8.596;2023-06-14T13:50:59;4.05;;;2.70;;
62880;SDS011;48969;49.934;8.596;2023-06-14T13:53:25;3.05;;;2.75;;
62880;SDS011;48969;49.934;8.596;2023-06-14T13:55:51;5.13;;;3.15;;
62880;SDS011;48969;49.934;8.596;2023-06-14T13:58:17;5.20;;;2.95;;
62880;SDS011;48969;49.934;8.596;2023-06-14T14:00:43;4.03;;;2.75;;
62880;SDS011;48969;49.934;8.596;2023-06-14T14:03:09;3.05;;;2.75;;
62880;SDS011;48969;49.934;8.596;2023-06-14T14:05:34;3.63;;;3.00;;
62880;SDS011;48969;49.934;8.596;2023-06-14T14:08:00;3.42;;;2.67;;
62880;SDS011;48969;49.934;8.596;2023-06-14T14:10:25;4.85;;;2.90;;
62880;SDS011;48969;49.934;8.596;2023-06-14T14:12:51;4.88;;;3.03;;
62880;SDS011;48969;49.934;8.596;2023-06-14T14:15:18;3.25;;;2.40;;
62880;SDS011;48969;49.934;8.596;2023-06-14T14:17:47;3.33;;;2.80;;
62880;SDS011;48969;49.934;8.596;2023-06-14T14:20:23;3.88;;;2.80;;
62880;SDS011;48969;49.934;8.596;2023-06-14T14:22:49;3.50;;;2.75;;
62880;SDS011;48969;49.934;8.596;2023-06-14T14:25:14;4.70;;;2.70;;
62880;SDS011;48969;49.934;8.596;2023-06-14T14:27:39;3.92;;;2.67;;
62880;SDS011;48969;49.934;8.596;2023-06-14T14:30:09;4.18;;;2.92;;
62880;SDS011;48969;49.934;8.596;2023-06-14T14:32:52;2.97;;;2.60;;
62880;SDS011;48969;49.934;8.596;2023-06-14T14:35:23;5.13;;;2.80;;
62880;SDS011;48969;49.934;8.596;2023-06-14T14:37:55;4.38;;;2.92;;
62880;SDS011;48969;49.934;8.596;2023-06-14T14:40:21;2.67;;;2.47;;
62880;SDS011;48969;49.934;8.596;2023-06-14T14:42:59;5.82;;;3.00;;
62880;SDS011;48969;49.934;8.596;2023-06-14T14:45:25;3.17;;;2.55;;
62880;SDS011;48969;49.934;8.596;2023-06-14T14:47:53;3.40;;;2.40;;
62880;SDS011;48969;49.934;8.596;2023-06-14T14:50:19;3.45;;;2.78;;
62880;SDS011;48969;49.934;8.596;2023-06-14T14:52:48;3.28;;;2.30;;
62880;SDS011;48969;49.934;8.596;2023-06-14T14:55:13;4.45;;;2.90;;
62880;SDS011;48969;49.934;8.596;2023-06-14T14:57:39;4.55;;;2.50;;
62880;SDS011;48969;49.934;8.596;2023-06-14T15:00:07;5.78;;;2.83;;
62880;SDS011;48969;49.934;8.596;2023-06-14T15:02:34;3.95;;;2.65;;
62880;SDS011;48969;49.934;8.596;2023-06-14T15:04:59;4.15;;;2.75;;
62880;SDS011;48969;49.934;8.596;2023-06-14T15:07:30;4.47;;;2.50;;
62880;SDS011;48969;49.934;8.596;2023-06-14T15:09:56;6.88;;;3.17;;